createdAt,value
2019-02-20T00:01:56.602Z,6.50
2019-02-20T00:04:27.018Z,6.50
2019-02-20T00:06:57.671Z,6.60
2019-02-20T00:09:28.042Z,6.60
2019-02-20T00:11:58.654Z,6.60
2019-02-20T00:14:29.294Z,6.70
2019-02-20T00:17:00.169Z,6.70
2019-02-20T00:19:30.513Z,6.70
2019-02-20T00:22:00.863Z,6.70
2019-02-20T00:24:31.218Z,6.70
2019-02-20T00:27:01.923Z,6.80
2019-02-20T00:29:32.247Z,6.80
2019-02-20T00:32:02.615Z,6.80
2019-02-20T00:34:32.944Z,6.80
2019-02-20T00:37:03.601Z,6.80
2019-02-20T00:39:34.331Z,6.70
2019-02-20T00:42:04.928Z,6.80
2019-02-20T00:44:36.937Z,6.80
2019-02-20T00:47:20.993Z,6.80
2019-02-20T00:49:51.347Z,6.80
2019-02-20T00:52:26.311Z,6.90
2019-02-20T00:54:56.679Z,6.90
2019-02-20T00:57:27.271Z,6.90
2019-02-20T00:59:58.184Z,6.90
2019-02-20T01:02:28.530Z,7.00
2019-02-20T01:04:58.863Z,7.00
2019-02-20T01:07:29.529Z,7.00
2019-02-20T01:10:00.355Z,7.00
2019-02-20T01:12:30.763Z,7.00
2019-02-20T01:15:01.125Z,7.00
2019-02-20T01:17:31.445Z,7.00
2019-02-20T01:20:02.640Z,7.00
2019-02-20T01:22:33.227Z,7.00
2019-02-20T01:25:04.188Z,7.00
2019-02-20T01:27:35.096Z,7.00
2019-02-20T01:30:09.701Z,7.00
2019-02-20T01:32:40.407Z,7.10
2019-02-20T01:35:11.420Z,7.10
2019-02-20T01:37:41.830Z,7.00
2019-02-20T01:40:12.532Z,7.00
2019-02-20T01:42:43.226Z,7.00
2019-02-20T01:45:13.609Z,7.00
2019-02-20T01:47:44.212Z,7.00
2019-02-20T01:50:15.056Z,7.00
2019-02-20T01:52:45.425Z,7.00
2019-02-20T01:55:16.063Z,7.00
2019-02-20T01:57:46.413Z,7.00
2019-02-20T02:00:16.775Z,7.00
2019-02-20T02:02:47.097Z,7.00
2019-02-20T02:05:17.756Z,7.00
2019-02-20T02:07:48.339Z,7.00
2019-02-20T02:10:18.741Z,7.00
2019-02-20T02:12:49.606Z,6.90
2019-02-20T02:15:20.720Z,6.90
2019-02-20T02:17:51.186Z,7.00
2019-02-20T02:20:21.856Z,7.00
2019-02-20T02:22:52.433Z,6.90
2019-02-20T02:25:22.757Z,7.00
2019-02-20T02:27:53.106Z,7.00
2019-02-20T02:30:23.711Z,7.00
2019-02-20T02:32:54.468Z,7.00
2019-02-20T02:35:25.097Z,7.00
2019-02-20T02:37:55.418Z,7.10
2019-02-20T02:40:25.758Z,7.00
2019-02-20T02:42:56.366Z,7.00
2019-02-20T02:45:26.682Z,7.00
2019-02-20T02:47:57.284Z,7.00
2019-02-20T02:50:27.660Z,7.00
2019-02-20T02:52:58.313Z,7.00
2019-02-20T02:55:28.674Z,7.10
2019-02-20T02:57:59.007Z,7.10
2019-02-20T03:00:29.350Z,7.10
2019-02-20T03:02:59.713Z,7.00
2019-02-20T03:05:30.330Z,7.00
2019-02-20T03:08:01.176Z,7.00
2019-02-20T03:10:31.529Z,6.90
2019-02-20T03:13:02.471Z,6.90
2019-02-20T03:15:33.104Z,6.80
2019-02-20T03:18:04.287Z,6.80
2019-02-20T03:20:34.665Z,6.80
2019-02-20T03:23:05.264Z,6.70
2019-02-20T03:25:35.902Z,6.70
2019-02-20T03:28:06.254Z,6.70
2019-02-20T03:30:36.602Z,6.70
2019-02-20T03:33:07.159Z,6.60
2019-02-20T03:35:37.542Z,6.60
2019-02-20T03:38:08.155Z,6.60
2019-02-20T03:40:38.494Z,6.60
2019-02-20T03:43:09.170Z,6.60
2019-02-20T03:45:39.375Z,6.50
2019-02-20T03:48:09.716Z,6.50
2019-02-20T03:50:40.329Z,6.50
2019-02-20T03:53:10.737Z,6.40
2019-02-20T03:55:41.280Z,6.40
2019-02-20T03:58:11.666Z,6.40
2019-02-20T04:00:42.283Z,6.40
2019-02-20T04:03:12.611Z,6.40
2019-02-20T04:05:42.962Z,6.40
2019-02-20T04:08:13.609Z,6.40
2019-02-20T04:10:44.256Z,6.40
2019-02-20T04:13:14.899Z,6.30
2019-02-20T04:15:45.235Z,6.30
2019-02-20T04:18:16.175Z,6.30
2019-02-20T04:20:46.498Z,6.30
2019-02-20T04:23:17.101Z,6.30
2019-02-20T04:25:47.734Z,6.40
2019-02-20T04:28:18.677Z,6.40
2019-02-20T04:30:49.306Z,6.50
2019-02-20T04:33:19.888Z,6.50
2019-02-20T04:35:50.486Z,6.50
2019-02-20T04:38:20.805Z,6.50
2019-02-20T04:40:51.242Z,6.60
2019-02-20T04:43:22.379Z,6.60
2019-02-20T04:45:52.738Z,6.60
2019-02-20T04:48:23.362Z,6.70
2019-02-20T04:50:53.967Z,6.70
2019-02-20T04:53:24.313Z,6.70
2019-02-20T04:55:54.756Z,6.70
2019-02-20T04:58:25.094Z,6.80
2019-02-20T05:00:55.436Z,6.80
2019-02-20T05:03:26.358Z,6.90
2019-02-20T05:05:57.002Z,6.90
2019-02-20T05:08:27.415Z,6.90
2019-02-20T05:10:57.759Z,6.90
2019-02-20T05:13:28.384Z,7.00
2019-02-20T05:15:58.708Z,7.00
2019-02-20T05:18:29.920Z,7.00
2019-02-20T05:21:01.074Z,7.00
2019-02-20T05:23:31.471Z,7.00
2019-02-20T05:26:02.121Z,7.00
2019-02-20T05:28:32.994Z,7.00
2019-02-20T05:31:03.384Z,7.10
2019-02-20T05:33:34.012Z,7.20
2019-02-20T05:36:04.394Z,7.20
2019-02-20T05:38:34.717Z,7.20
2019-02-20T05:41:05.043Z,7.20
2019-02-20T05:43:35.705Z,7.20
2019-02-20T05:46:06.028Z,7.20
2019-02-20T05:48:36.381Z,7.20
2019-02-20T05:51:06.735Z,7.20
2019-02-20T05:53:37.441Z,7.30
2019-02-20T05:56:11.082Z,7.20
2019-02-20T05:58:41.430Z,7.20
2019-02-20T06:01:11.795Z,7.20
2019-02-20T06:03:42.163Z,7.30
2019-02-20T06:06:12.746Z,7.40
2019-02-20T06:08:43.100Z,7.40
2019-02-20T06:11:15.181Z,7.40
2019-02-20T06:13:45.850Z,7.40
2019-02-20T06:16:16.255Z,7.30
2019-02-20T06:18:46.589Z,7.30
2019-02-20T06:21:17.222Z,7.30
2019-02-20T06:23:47.555Z,7.30
2019-02-20T06:26:17.936Z,7.30
2019-02-20T06:28:48.318Z,7.30
2019-02-20T06:31:18.962Z,7.40
2019-02-20T06:33:49.560Z,7.40
2019-02-20T06:36:20.521Z,7.40
2019-02-20T06:38:50.862Z,7.40
2019-02-20T06:41:21.215Z,7.40
2019-02-20T06:43:51.852Z,7.40
2019-02-20T06:46:22.450Z,7.50
2019-02-20T06:48:52.802Z,7.50
2019-02-20T06:51:23.128Z,7.60
2019-02-20T06:53:53.850Z,7.60
2019-02-20T06:56:24.216Z,7.70
2019-02-20T06:58:54.835Z,7.80
2019-02-20T07:01:25.325Z,7.80
2019-02-20T07:03:55.980Z,7.80
2019-02-20T07:06:51.687Z,7.80
2019-02-20T07:09:49.009Z,7.90
2019-02-20T07:12:38.961Z,8.00
2019-02-20T07:15:28.939Z,8.00
2019-02-20T07:18:32.065Z,8.10
2019-02-20T07:21:25.192Z,8.10
2019-02-20T07:24:17.869Z,8.00
2019-02-20T07:27:13.704Z,8.10
2019-02-20T07:30:03.469Z,8.20
2019-02-20T07:32:33.793Z,8.20
2019-02-20T07:35:05.341Z,8.10
2019-02-20T07:37:35.685Z,8.10
2019-02-20T07:40:08.228Z,8.10
2019-02-20T07:42:38.765Z,8.10
2019-02-20T07:45:10.701Z,8.10
2019-02-20T07:47:41.045Z,8.10
2019-02-20T07:50:12.607Z,8.10
2019-02-20T07:52:43.247Z,8.10
2019-02-20T07:55:13.924Z,8.10
2019-02-20T07:57:44.580Z,8.10
2019-02-20T08:00:15.083Z,8.00
2019-02-20T08:02:45.428Z,8.00
2019-02-20T08:05:16.123Z,8.00
2019-02-20T08:07:47.029Z,8.10
2019-02-20T08:10:17.381Z,8.20
2019-02-20T08:12:48.013Z,8.20
2019-02-20T08:15:18.840Z,8.30
2019-02-20T08:17:49.462Z,8.30
2019-02-20T08:20:20.482Z,8.40
2019-02-20T08:22:50.854Z,8.40
2019-02-20T08:25:23.058Z,8.40
2019-02-20T08:27:53.258Z,8.40
2019-02-20T08:30:23.658Z,8.20
2019-02-20T08:32:54.545Z,8.30
2019-02-20T08:35:25.465Z,8.30
2019-02-20T08:37:56.080Z,8.30
2019-02-20T08:40:26.690Z,8.30
2019-02-20T08:42:57.341Z,8.40
2019-02-20T08:45:27.729Z,8.50
2019-02-20T08:47:58.080Z,8.50
2019-02-20T08:50:28.409Z,8.60
2019-02-20T08:52:58.790Z,8.60
2019-02-20T08:55:31.949Z,8.70
2019-02-20T08:58:01.705Z,8.80
2019-02-20T09:00:32.100Z,9.00
2019-02-20T09:03:02.732Z,9.10
2019-02-20T09:05:34.220Z,9.10
2019-02-20T09:08:04.711Z,9.20
2019-02-20T09:10:35.051Z,9.40
2019-02-20T09:13:05.581Z,9.50
2019-02-20T09:15:36.209Z,9.60
2019-02-20T09:18:06.825Z,9.70
2019-02-20T09:20:37.215Z,9.70
2019-02-20T09:23:07.839Z,9.80
2019-02-20T09:25:41.540Z,9.80
2019-02-20T09:28:10.245Z,10.00
2019-02-20T09:30:40.612Z,10.10
2019-02-20T09:33:10.988Z,10.20
2019-02-20T09:35:41.617Z,10.20
2019-02-20T09:38:12.283Z,10.30
2019-02-20T09:40:42.643Z,10.30
2019-02-20T09:43:13.273Z,10.30
2019-02-20T09:45:44.594Z,10.20
2019-02-20T09:48:15.285Z,10.20
2019-02-20T09:50:47.667Z,10.20
2019-02-20T09:53:18.011Z,10.20
2019-02-20T09:55:51.557Z,10.20
2019-02-20T09:58:20.424Z,10.20
2019-02-20T10:00:50.776Z,10.20
2019-02-20T10:03:22.344Z,10.30
2019-02-20T10:05:52.681Z,10.30
2019-02-20T10:08:23.317Z,10.30
2019-02-20T10:10:54.004Z,10.30
2019-02-20T10:13:24.694Z,10.40
2019-02-20T10:15:55.301Z,10.40
2019-02-20T10:18:25.698Z,10.40
2019-02-20T10:20:56.355Z,10.30
2019-02-20T10:23:26.967Z,10.30
2019-02-20T10:26:00.978Z,10.30
2019-02-20T10:28:29.360Z,10.20
2019-02-20T10:30:59.766Z,10.30
2019-02-20T10:33:30.078Z,10.30
2019-02-20T10:36:00.712Z,10.30
2019-02-20T10:38:31.618Z,10.30
2019-02-20T10:41:02.254Z,10.30
2019-02-20T10:43:32.951Z,10.50
2019-02-20T10:46:03.317Z,10.60
2019-02-20T10:48:33.698Z,10.60
2019-02-20T10:51:04.199Z,10.70
2019-02-20T10:53:34.570Z,10.80
2019-02-20T10:56:09.429Z,10.90
2019-02-20T10:58:37.652Z,10.90
2019-02-20T11:01:08.411Z,11.00
2019-02-20T11:03:38.785Z,11.10
2019-02-20T11:06:09.126Z,11.20
2019-02-20T11:08:39.737Z,11.30
2019-02-20T11:11:10.376Z,11.30
2019-02-20T11:13:40.781Z,11.40
2019-02-20T11:16:11.560Z,11.30
2019-02-20T11:18:42.222Z,11.40
2019-02-20T11:21:12.870Z,11.40
2019-02-20T11:23:43.231Z,11.30
2019-02-20T11:26:18.371Z,11.30
2019-02-20T11:28:45.909Z,11.40
2019-02-20T11:31:17.092Z,11.50
2019-02-20T11:33:47.491Z,11.50
2019-02-20T11:36:17.852Z,11.60
2019-02-20T11:38:48.203Z,11.50
2019-02-20T11:41:18.605Z,11.60
2019-02-20T11:43:49.013Z,11.50
2019-02-20T11:46:19.666Z,11.50
2019-02-20T11:48:50.050Z,11.40
2019-02-20T11:51:20.432Z,11.40
2019-02-20T11:53:51.333Z,11.40
2019-02-20T11:56:26.524Z,11.20
2019-02-20T11:58:54.398Z,11.20
2019-02-20T12:01:25.285Z,11.20
2019-02-20T12:03:55.676Z,11.10
2019-02-20T12:06:26.070Z,11.10
2019-02-20T12:08:56.458Z,11.20
2019-02-20T12:11:27.117Z,11.20
2019-02-20T12:13:57.454Z,11.20
2019-02-20T12:16:27.851Z,11.20
2019-02-20T12:18:58.213Z,11.20
2019-02-20T12:21:28.925Z,11.30
2019-02-20T12:23:59.818Z,11.30
2019-02-20T12:26:35.179Z,11.40
2019-02-20T12:29:02.521Z,11.50
2019-02-20T12:31:33.139Z,11.50
2019-02-20T12:34:03.800Z,11.50
2019-02-20T12:36:34.473Z,11.60
2019-02-20T12:39:05.416Z,11.80
2019-02-20T12:41:36.130Z,11.90
2019-02-20T12:44:06.480Z,12.00
2019-02-20T12:46:36.886Z,12.00
2019-02-20T12:49:07.512Z,11.90
2019-02-20T12:51:38.912Z,11.80
2019-02-20T12:54:09.961Z,11.70
2019-02-20T12:56:44.046Z,11.60
2019-02-20T12:59:13.217Z,11.50
2019-02-20T13:01:43.905Z,11.50
2019-02-20T13:04:14.555Z,11.60
2019-02-20T13:06:44.890Z,11.60
2019-02-20T13:09:16.285Z,11.60
2019-02-20T13:11:46.616Z,11.70
2019-02-20T13:14:16.977Z,11.70
2019-02-20T13:16:47.454Z,11.70
2019-02-20T13:19:18.214Z,11.70
2019-02-20T13:21:48.559Z,11.60
2019-02-20T13:24:18.915Z,11.50
2019-02-20T13:26:53.104Z,11.50
2019-02-20T13:29:21.935Z,11.50
2019-02-20T13:31:52.274Z,11.50
2019-02-20T13:34:23.013Z,11.60
2019-02-20T13:36:53.435Z,11.70
2019-02-20T13:39:24.080Z,11.70
2019-02-20T13:41:54.445Z,11.60
2019-02-20T13:44:24.809Z,11.50
2019-02-20T13:46:55.462Z,11.50
2019-02-20T13:49:25.872Z,11.50
2019-02-20T13:51:56.215Z,11.60
2019-02-20T13:54:26.851Z,11.60
2019-02-20T13:57:01.816Z,11.60
2019-02-20T13:59:29.947Z,11.60
2019-02-20T14:02:00.607Z,11.50
2019-02-20T14:04:31.512Z,11.50
2019-02-20T14:07:01.894Z,11.50
2019-02-20T14:09:32.890Z,11.50
2019-02-20T14:12:03.542Z,11.50
2019-02-20T14:14:33.928Z,11.50
2019-02-20T14:17:04.548Z,11.50
2019-02-20T14:19:35.206Z,11.50
2019-02-20T14:22:05.638Z,11.50
2019-02-20T14:24:35.975Z,11.50
2019-02-20T14:27:10.704Z,11.40
2019-02-20T14:29:38.695Z,11.30
2019-02-20T14:32:09.298Z,11.30
2019-02-20T14:34:39.637Z,11.30
2019-02-20T14:37:10.408Z,11.30
2019-02-20T14:39:41.034Z,11.20
2019-02-20T14:42:11.479Z,11.20
2019-02-20T14:44:41.843Z,11.20
2019-02-20T14:47:12.331Z,11.10
2019-02-20T14:49:43.026Z,11.20
2019-02-20T14:52:13.913Z,11.10
2019-02-20T14:54:44.885Z,11.10
2019-02-20T14:57:19.657Z,11.00
2019-02-20T14:59:47.785Z,11.00
2019-02-20T15:02:18.171Z,11.00
2019-02-20T15:04:48.615Z,10.90
2019-02-20T15:07:19.233Z,10.90
2019-02-20T15:09:49.569Z,10.90
2019-02-20T15:12:20.440Z,10.90
2019-02-20T15:14:50.818Z,10.90
2019-02-20T15:17:21.700Z,10.80
2019-02-20T15:19:52.075Z,10.80
2019-02-20T15:22:22.469Z,10.80
2019-02-20T15:24:53.110Z,10.80
2019-02-20T15:27:28.650Z,10.80
2019-02-20T15:29:55.820Z,10.80
2019-02-20T15:32:26.228Z,10.90
2019-02-20T15:34:56.832Z,10.80
2019-02-20T15:37:27.238Z,10.80
2019-02-20T15:39:57.947Z,10.80
2019-02-20T15:42:28.555Z,10.80
2019-02-20T15:44:58.933Z,10.80
2019-02-20T15:47:29.926Z,10.70
2019-02-20T15:50:00.356Z,10.70
2019-02-20T15:52:31.022Z,10.70
2019-02-20T15:55:01.687Z,10.70
2019-02-20T15:57:38.002Z,10.70
2019-02-20T16:00:06.571Z,10.60
2019-02-20T16:02:36.910Z,10.60
2019-02-20T16:05:07.815Z,10.70
2019-02-20T16:07:38.234Z,10.60
2019-02-20T16:10:10.705Z,10.60
2019-02-20T16:12:43.007Z,10.60
2019-02-20T16:15:14.752Z,10.50
2019-02-20T16:17:45.228Z,10.50
2019-02-20T16:20:15.969Z,10.50
2019-02-20T16:22:46.596Z,10.50
2019-02-20T16:25:17.302Z,10.50
2019-02-20T16:27:47.991Z,10.40
2019-02-20T16:30:18.657Z,10.40
2019-02-20T16:32:51.187Z,10.40
2019-02-20T16:35:21.603Z,10.40
2019-02-20T16:37:52.004Z,10.30
2019-02-20T16:40:22.334Z,10.30
2019-02-20T16:42:52.987Z,10.30
2019-02-20T16:45:25.232Z,10.20
2019-02-20T16:47:56.014Z,10.20
2019-02-20T16:50:26.643Z,10.20
2019-02-20T16:52:57.334Z,10.10
2019-02-20T16:55:27.689Z,10.10
2019-02-20T16:57:58.085Z,10.10
2019-02-20T17:00:29.054Z,10.10
2019-02-20T17:02:59.534Z,10.10
2019-02-20T17:05:29.919Z,10.10
2019-02-20T17:08:00.527Z,10.10
2019-02-20T17:10:30.885Z,10.10
2019-02-20T17:13:01.248Z,10.10
2019-02-20T17:15:32.183Z,10.00
2019-02-20T17:18:02.544Z,10.00
2019-02-20T17:20:32.944Z,10.00
2019-02-20T17:23:03.564Z,10.00
2019-02-20T17:25:33.909Z,10.00
2019-02-20T17:28:06.020Z,9.90
2019-02-20T17:30:36.542Z,10.00
2019-02-20T17:33:06.873Z,9.90
2019-02-20T17:35:37.261Z,9.90
2019-02-20T17:38:08.286Z,9.90
2019-02-20T17:40:38.646Z,9.90
2019-02-20T17:43:09.612Z,9.90
2019-02-20T17:45:39.954Z,9.80
2019-02-20T17:48:10.562Z,9.80
2019-02-20T17:50:40.937Z,9.80
2019-02-20T17:53:11.613Z,9.80
2019-02-20T17:55:42.754Z,9.80
2019-02-20T17:58:15.353Z,9.70
2019-02-20T18:00:45.945Z,9.70
2019-02-20T18:03:16.348Z,9.70
2019-02-20T18:05:46.761Z,9.70
2019-02-20T18:08:17.112Z,9.70
2019-02-20T18:10:47.722Z,9.70
2019-02-20T18:13:19.733Z,9.60
2019-02-20T18:15:50.205Z,9.60
2019-02-20T18:18:20.829Z,9.60
2019-02-20T18:20:51.181Z,9.60
2019-02-20T18:23:21.793Z,9.50
2019-02-20T18:25:52.407Z,9.50
2019-02-20T18:28:24.817Z,9.50
2019-02-20T18:30:54.857Z,9.40
2019-02-20T18:33:25.233Z,9.40
2019-02-20T18:35:55.584Z,9.40
2019-02-20T18:38:26.291Z,9.40
2019-02-20T18:40:56.664Z,9.30
2019-02-20T18:43:27.248Z,9.30
2019-02-20T18:45:58.195Z,9.30
2019-02-20T18:48:28.548Z,9.30
2019-02-20T18:50:59.334Z,9.20
2019-02-20T18:53:31.034Z,9.20
2019-02-20T18:56:01.471Z,9.20
2019-02-20T18:58:34.014Z,9.20
2019-02-20T19:01:03.830Z,9.20
2019-02-20T19:03:34.234Z,9.20
2019-02-20T19:06:04.635Z,9.20
2019-02-20T19:08:39.744Z,9.20
2019-02-20T19:11:26.708Z,9.20
2019-02-20T19:14:25.743Z,9.20
2019-02-20T19:17:24.721Z,9.20
2019-02-20T19:20:14.188Z,9.20
2019-02-20T19:23:06.425Z,9.20
2019-02-20T19:26:26.428Z,9.10
2019-02-20T19:29:38.509Z,9.10
2019-02-20T19:32:43.681Z,9.10
2019-02-20T19:35:55.051Z,9.10
2019-02-20T19:38:50.553Z,9.10
2019-02-20T19:41:43.570Z,9.00
2019-02-20T19:44:33.877Z,9.00
2019-02-20T19:47:11.807Z,9.00
2019-02-20T19:50:32.906Z,8.90
2019-02-20T19:53:19.641Z,9.00
2019-02-20T19:56:16.821Z,9.00
2019-02-20T19:59:11.100Z,9.00
2019-02-20T20:02:27.827Z,9.00
2019-02-20T20:05:17.328Z,9.00
2019-02-20T20:08:22.225Z,9.00
2019-02-20T20:11:16.491Z,9.00
2019-02-20T20:14:15.748Z,9.00
2019-02-20T20:17:24.905Z,9.00
2019-02-20T20:20:11.954Z,9.00
2019-02-20T20:22:49.867Z,9.00
2019-02-20T20:25:43.018Z,9.00
2019-02-20T20:28:27.018Z,9.00
2019-02-20T20:31:11.452Z,8.90
2019-02-20T20:34:18.399Z,8.90
2019-02-20T20:37:11.225Z,8.80
2019-02-20T20:39:52.021Z,8.80
2019-02-20T20:42:51.957Z,8.80
2019-02-20T20:45:48.506Z,8.80
2019-02-20T20:48:47.931Z,8.80
2019-02-20T20:51:54.503Z,8.80
2019-02-20T20:54:47.665Z,8.80
2019-02-20T20:58:06.740Z,8.80
2019-02-20T21:01:13.092Z,8.80
2019-02-20T21:04:20.657Z,8.80
2019-02-20T21:07:19.384Z,8.80
2019-02-20T21:10:09.468Z,8.80
2019-02-20T21:12:56.481Z,8.80
2019-02-20T21:15:59.662Z,8.70
2019-02-20T21:18:45.839Z,8.60
2019-02-20T21:21:44.765Z,8.50
2019-02-20T21:24:46.159Z,8.60
2019-02-20T21:27:45.318Z,8.50
2019-02-20T21:30:49.194Z,8.50
2019-02-20T21:33:58.506Z,8.50
2019-02-20T21:36:36.980Z,8.50
2019-02-20T21:39:14.883Z,8.50
2019-02-20T21:42:01.437Z,8.40
2019-02-20T21:44:51.193Z,8.40
2019-02-20T21:48:17.570Z,8.30
2019-02-20T21:51:04.367Z,8.20
2019-02-20T21:54:08.050Z,8.20
2019-02-20T21:57:12.995Z,8.20
2019-02-20T22:00:21.099Z,8.20
2019-02-20T22:03:11.366Z,8.10
2019-02-20T22:05:52.170Z,8.00
2019-02-20T22:08:30.702Z,8.00
2019-02-20T22:11:17.671Z,8.00
2019-02-20T22:13:56.034Z,7.80
2019-02-20T22:16:37.104Z,7.80
2019-02-20T22:19:17.709Z,7.70
2019-02-20T22:22:28.729Z,7.70
2019-02-20T22:25:32.036Z,7.60
2019-02-20T22:28:29.380Z,7.50
2019-02-20T22:31:20.751Z,7.50
2019-02-20T22:34:23.139Z,7.50
2019-02-20T22:37:38.523Z,7.40
2019-02-20T22:40:14.075Z,7.30
2019-02-20T22:43:06.985Z,7.20
2019-02-20T22:45:58.825Z,7.20
2019-02-20T22:49:10.178Z,7.10
2019-02-20T22:52:05.913Z,7.00
2019-02-20T22:55:29.227Z,7.00
2019-02-20T22:58:04.535Z,7.00
2019-02-20T23:01:17.439Z,7.00
2019-02-20T23:04:21.283Z,7.00
2019-02-20T23:07:02.569Z,7.00
2019-02-20T23:09:57.266Z,7.00
2019-02-20T23:12:41.112Z,7.00
2019-02-20T23:15:11.443Z,6.90
2019-02-20T23:17:41.837Z,6.90
2019-02-20T23:20:12.717Z,6.90
2019-02-20T23:22:43.300Z,6.80
2019-02-20T23:25:13.729Z,6.80
2019-02-20T23:27:44.083Z,6.80
2019-02-20T23:30:14.420Z,6.80
2019-02-20T23:32:44.761Z,6.80
2019-02-20T23:35:15.423Z,6.90
2019-02-20T23:37:46.338Z,6.90
2019-02-20T23:40:17.008Z,6.90
2019-02-20T23:42:49.098Z,7.00
2019-02-20T23:45:20.061Z,7.00
2019-02-20T23:47:50.976Z,7.00
2019-02-20T23:50:21.339Z,7.00
2019-02-20T23:52:52.313Z,7.00
2019-02-20T23:55:22.717Z,7.00
2019-02-20T23:57:53.035Z,7.00
